Time;durP1;ratioP1;P1;durP2;ratioP2;P2;SDS_P1;SDS_P2;PMS_P1;PMS_P2;Temp;Humidity;BMP_temperature;BMP_pressure;BME280_temperature;BME280_humidity;BME280_pressure;Samples;Min_cycle;Max_cycle;Signal;HPM_P1;HPM_P2
2022/09/13 00:00:50;;;;;;;;;;;;;;;29.14;87.94;100801.63;5018350;28;20072;-48
2022/09/13 00:03:16;;;;;;;10.67;6.87;;;;;;;29.06;89.20;100800.50;5002156;28;19914;-48
2022/09/13 00:05:42;;;;;;;;;;;;;;;28.77;92.29;100799.94;5016529;28;20035;-47
2022/09/13 00:08:08;;;;;;;11.80;6.20;;;;;;;28.68;94.60;100799.13;5002465;28;19914;-49
2022/09/13 00:10:35;;;;;;;;;;;;;;;28.61;96.79;100793.28;5001791;28;20053;-49
2022/09/13 00:13:01;;;;;;;12.63;6.57;;;;;;;28.85;95.08;100794.81;5009398;28;19980;-47
2022/09/13 00:15:26;;;;;;;9.93;5.97;;;;;;;28.85;96.54;100797.56;5026270;28;20041;-51
2022/09/13 00:17:52;;;;;;;14.95;6.35;;;;;;;28.69;98.17;100799.91;5008915;28;20040;-50
2022/09/13 00:20:17;;;;;;;16.23;7.35;;;;;;;28.81;98.62;100793.81;5022185;28;20062;-50
2022/09/13 00:22:43;;;;;;;10.65;6.43;;;;;;;28.60;100.00;100789.72;4996297;28;20038;-51
2022/09/13 00:25:08;;;;;;;14.07;6.47;;;;;;;28.63;100.00;100782.75;5017333;28;20038;-51
2022/09/13 00:27:35;;;;;;;12.85;7.40;;;;;;;28.60;100.00;100778.69;5007527;28;20071;-48
2022/09/13 00:30:02;;;;;;;11.27;6.80;;;;;;;28.43;100.00;100776.72;4994464;28;20038;-50
2022/09/13 00:32:28;;;;;;;12.63;7.20;;;;;;;28.56;100.00;100774.16;5000889;28;20036;-51
2022/09/13 00:34:54;;;;;;;11.93;6.82;;;;;;;28.52;100.00;100768.50;5001472;28;20070;-49
2022/09/13 00:37:19;;;;;;;11.13;6.43;;;;;;;28.71;100.00;100770.13;5001016;28;20047;-49
2022/09/13 00:39:45;;;;;;;13.18;7.03;;;;;;;28.73;100.00;100762.41;4998568;28;20046;-53
2022/09/13 00:42:11;;;;;;;12.05;7.50;;;;;;;28.66;100.00;100762.03;5010480;28;20049;-51
2022/09/13 00:44:56;;;;;;;14.97;8.47;;;;;;;28.99;100.00;100756.94;4992719;28;20030;-52
2022/09/13 00:47:40;;;;;;;12.07;8.30;;;;;;;28.81;100.00;100766.28;5025162;28;20047;-51
2022/09/13 00:50:24;;;;;;;13.57;8.03;;;;;;;28.55;100.00;100764.28;5015063;28;20031;-51
2022/09/13 00:52:56;;;;;;;20.47;9.57;;;;;;;28.31;100.00;100765.50;5008917;28;20031;-50
2022/09/13 00:55:24;;;;;;;15.53;8.93;;;;;;;28.36;100.00;100759.84;4998787;28;20057;-51
2022/09/13 00:57:52;;;;;;;19.63;10.07;;;;;;;28.45;100.00;100763.47;4992939;28;20027;-52
2022/09/13 01:00:19;;;;;;;17.40;8.77;;;;;;;28.56;100.00;100766.72;4982682;28;20027;-53
2022/09/13 01:02:56;;;;;;;17.53;8.70;;;;;;;28.71;100.00;100762.69;4992679;28;20039;-47
2022/09/13 01:05:26;;;;;;;9.85;6.72;;;;;;;28.24;100.00;100759.66;5013868;28;20035;-48
2022/09/13 01:07:55;;;;;;;13.50;7.50;;;;;;;28.24;100.00;100760.47;4998762;28;20068;-49
2022/09/13 01:10:22;;;;;;;17.53;7.40;;;;;;;28.21;100.00;100758.34;5011239;28;20029;-51
2022/09/13 01:13:03;;;;;;;10.83;6.63;;;;;;;28.08;100.00;100756.50;5001337;28;20035;-49
2022/09/13 01:15:29;;;;;;;10.97;6.50;;;;;;;28.12;100.00;100752.78;4999865;28;20031;-51
2022/09/13 01:17:55;;;;;;;9.85;6.10;;;;;;;28.07;100.00;100758.44;4991031;28;20126;-50
2022/09/13 01:20:24;;;;;;;;;;;;;;;28.17;100.00;100755.44;5011818;28;20038;-48
2022/09/13 01:23:05;;;;;;;12.83;7.43;;;;;;;27.88;100.00;100759.47;4998968;28;19914;-48
2022/09/13 01:26:03;;;;;;;13.27;7.00;;;;;;;28.15;100.00;100754.97;5001715;28;20049;-47
2022/09/13 01:28:55;;;;;;;11.33;6.97;;;;;;;27.81;100.00;100761.88;5020232;28;20124;-50
2022/09/13 01:31:56;;;;;;;12.23;6.57;;;;;;;27.84;100.00;100763.19;5011832;28;20091;-52
2022/09/13 01:34:50;;;;;;;11.07;6.80;;;;;;;28.08;98.09;100762.81;5007981;28;20054;-52
2022/09/13 01:37:50;;;;;;;11.37;6.13;;;;;;;28.20;97.64;100764.97;4992615;28;20038;-51
2022/09/13 01:40:38;;;;;;;12.13;6.27;;;;;;;28.53;93.37;100766.53;5004837;28;20034;-52
2022/09/13 01:43:10;;;;;;;14.63;7.10;;;;;;;28.18;96.35;100759.81;5020077;28;20038;-52
2022/09/13 01:45:42;;;;;;;11.03;7.33;;;;;;;28.27;95.88;100762.59;5002412;28;20035;-53
2022/09/13 01:48:12;;;;;;;10.93;6.87;;;;;;;28.05;97.12;100752.44;5026568;28;20045;-48
2022/09/13 01:50:58;;;;;;;11.00;7.00;;;;;;;28.61;93.30;100752.03;5002160;28;20164;-48
2022/09/13 01:54:04;;;;;;;19.97;7.53;;;;;;;28.58;93.18;100747.13;4999900;28;20101;-50
2022/09/13 01:56:53;;;;;;;14.03;7.07;;;;;;;28.68;92.69;100752.34;5005193;28;20031;-48
2022/09/13 01:59:49;;;;;;;12.67;7.17;;;;;;;28.59;92.35;100757.81;5002317;28;20048;-48
2022/09/13 02:02:21;;;;;;;12.77;7.37;;;;;;;28.15;95.08;100748.59;4992585;28;20074;-49
2022/09/13 02:04:53;;;;;;;14.60;7.27;;;;;;;27.99;97.42;100737.22;4997871;28;20033;-48
2022/09/13 02:07:24;;;;;;;17.93;7.17;;;;;;;28.55;93.48;100742.28;4998021;28;20035;-50
2022/09/13 02:09:56;;;;;;;14.03;7.23;;;;;;;28.04;96.32;100740.66;5002548;28;20043;-52
2022/09/13 02:12:25;;;;;;;12.90;7.43;;;;;;;28.66;92.06;100751.84;4987495;28;20030;-51
2022/09/13 02:15:01;;;;;;;16.83;6.97;;;;;;;28.92;90.92;100748.34;4987886;28;20027;-48
2022/09/13 02:17:31;;;;;;;13.40;7.13;;;;;;;28.90;92.05;100751.41;4991651;28;20030;-52
2022/09/13 02:20:00;;;;;;;16.43;7.63;;;;;;;28.89;92.08;100757.25;4991675;28;20015;-49
2022/09/13 02:22:33;;;;;;;12.97;7.70;;;;;;;28.71;93.00;100759.94;4991790;28;20058;-51
2022/09/13 02:25:05;;;;;;;10.93;7.03;;;;;;;28.98;91.40;100754.53;5010430;28;20057;-51
2022/09/13 02:27:34;;;;;;;15.10;7.63;;;;;;;28.82;91.77;100760.47;5021840;28;20103;-50
2022/09/13 02:30:05;;;;;;;14.60;7.17;;;;;;;28.76;92.34;100761.75;4991683;28;20090;-53
2022/09/13 02:32:39;;;;;;;13.73;7.60;;;;;;;28.79;92.58;100761.13;5001362;28;20042;-50
2022/09/13 02:35:10;;;;;;;13.13;7.30;;;;;;;28.94;92.33;100753.53;5000386;28;20042;-52
2022/09/13 02:37:39;;;;;;;12.10;7.90;;;;;;;28.85;93.09;100761.78;5022379;28;20036;-52
2022/09/13 02:40:13;;;;;;;17.60;8.20;;;;;;;28.73;94.99;100760.44;4998488;28;20094;-53
2022/09/13 02:42:46;;;;;;;19.77;8.60;;;;;;;28.72;96.05;100758.81;5002270;28;20030;-49
2022/09/13 02:45:14;;;;;;;13.47;8.00;;;;;;;28.97;94.56;100759.19;5004818;28;20027;-50
2022/09/13 02:47:58;;;;;;;15.23;8.50;;;;;;;29.31;92.01;100762.28;5016364;28;20047;-49
2022/09/13 02:50:42;;;;;;;18.50;8.90;;;;;;;28.81;96.01;100763.53;5015602;28;20045;-50
2022/09/13 02:53:17;;;;;;;13.57;8.27;;;;;;;28.69;97.16;100764.16;5009142;28;20042;-50
2022/09/13 02:55:53;;;;;;;18.33;9.33;;;;;;;28.60;98.24;100761.38;4988387;28;20063;-54
2022/09/13 02:58:27;;;;;;;12.87;8.23;;;;;;;28.62;97.91;100756.38;5001454;28;20038;-50
2022/09/13 03:00:54;;;;;;;18.17;8.43;;;;;;;28.67;98.20;100760.91;5005112;28;20031;-49
2022/09/13 03:03:20;;;;;;;12.73;7.90;;;;;;;28.67;98.54;100760.91;4990393;28;20054;-51
2022/09/13 03:05:46;;;;;;;12.70;8.38;;;;;;;28.63;98.84;100766.25;5001442;28;20069;-49
2022/09/13 03:08:13;;;;;;;16.90;9.75;;;;;;;28.60;99.18;100761.38;5012919;28;20039;-48
2022/09/13 03:10:51;;;;;;;17.07;9.97;;;;;;;28.56;99.17;100769.47;4996361;28;20039;-48
2022/09/13 03:13:29;;;;;;;14.47;9.70;;;;;;;28.60;98.53;100766.88;5002591;28;20094;-50
2022/09/13 03:16:31;;;;;;;14.83;8.93;;;;;;;28.51;99.01;100766.88;5011950;28;20066;-48
2022/09/13 03:19:17;;;;;;;17.07;8.67;;;;;;;28.48;100.00;100767.50;5025068;28;20045;-51
2022/09/13 03:22:02;;;;;;;14.90;9.23;;;;;;;28.67;98.96;100774.66;4995461;28;20047;-49
2022/09/13 03:24:58;;;;;;;15.17;9.87;;;;;;;28.50;99.95;100767.19;5013636;28;20053;-51
2022/09/13 03:27:46;;;;;;;14.15;8.77;;;;;;;28.42;100.00;100766.03;4993545;28;20031;-49
2022/09/13 03:30:13;;;;;;;17.93;9.60;;;;;;;28.39;100.00;100769.41;5001496;28;20055;-53
2022/09/13 03:33:10;;;;;;;16.00;9.37;;;;;;;28.38;100.00;100776.88;5014503;28;20040;-51
2022/09/13 03:35:48;;;;;;;15.25;9.32;;;;;;;29.05;97.14;100765.84;5013558;28;20034;-51
2022/09/13 03:38:20;;;;;;;17.17;9.20;;;;;;;29.09;97.08;100772.31;5011782;28;20057;-49
2022/09/13 03:40:58;;;;;;;18.20;9.50;;;;;;;28.53;100.00;100769.28;4996640;28;20023;-48
2022/09/13 03:43:36;;;;;;;19.27;9.83;;;;;;;28.41;100.00;100770.72;5008547;28;20039;-46
2022/09/13 03:46:07;;;;;;;19.80;10.23;;;;;;;28.37;100.00;100774.44;4993218;28;20050;-49
2022/09/13 03:48:36;;;;;;;14.27;9.20;;;;;;;28.91;99.76;100771.50;5001895;28;20049;-46
2022/09/13 03:51:05;;;;;;;21.33;10.73;;;;;;;28.39;100.00;100766.66;4993690;28;20030;-49
2022/09/13 03:53:34;;;;;;;21.63;11.23;;;;;;;28.73;100.00;100771.44;5009770;28;20437;-49
2022/09/13 03:56:00;;;;;;;17.67;11.77;;;;;;;28.28;100.00;100772.47;5004382;28;20094;-47
2022/09/13 03:58:26;;;;;;;;;;;;;;;28.87;99.17;100767.78;5004630;28;20068;-48
2022/09/13 04:00:53;;;;;;;21.03;11.40;;;;;;;28.81;100.00;100774.56;5013457;28;19922;-50
2022/09/13 04:03:20;;;;;;;23.60;11.80;;;;;;;28.65;100.00;100774.19;5004097;28;20040;-52
2022/09/13 04:05:45;;;;;;;17.73;10.68;;;;;;;28.23;100.00;100769.03;5001617;28;20042;-50
2022/09/13 04:08:11;;;;;;;22.48;10.68;;;;;;;28.18;100.00;100767.25;5001306;28;20035;-49
2022/09/13 04:10:37;;;;;;;;;;;;;;;28.33;100.00;100768.75;4993907;28;20061;-47
2022/09/13 04:13:03;;;;;;;18.90;12.60;;;;;;;28.41;100.00;100770.72;4993806;28;19922;-49
2022/09/13 04:15:31;;;;;;;;;;;;;;;28.31;100.00;100771.00;5004538;28;20027;-51
2022/09/13 04:17:58;;;;;;;29.57;16.73;;;;;;;28.32;100.00;100773.44;5010239;28;19924;-50
2022/09/13 04:20:24;;;;;;;;;;;;;;;28.14;100.00;100771.72;5001915;28;20040;-52
2022/09/13 04:22:51;;;;;;;43.27;22.70;;;;;;;28.23;100.00;100775.34;5002617;28;19980;-48
2022/09/13 04:25:17;;;;;;;31.33;17.03;;;;;;;28.45;100.00;100768.97;5006586;28;20049;-51
2022/09/13 04:27:43;;;;;;;;;;;;;;;28.00;100.00;100763.59;5000018;28;20015;-48
2022/09/13 04:30:10;;;;;;;48.93;25.87;;;;;;;28.12;100.00;100769.28;4994200;28;19929;-49
2022/09/13 04:32:35;;;;;;;40.07;20.43;;;;;;;27.84;100.00;100776.91;5003236;28;20032;-48
2022/09/13 04:35:01;;;;;;;23.88;14.05;;;;;;;27.97;100.00;100775.22;5006845;28;20043;-50
2022/09/13 04:37:26;;;;;;;37.05;20.90;;;;;;;27.85;100.00;100784.03;4999479;28;20102;-49
2022/09/13 04:39:52;;;;;;;;;;;;;;;27.76;100.00;100789.47;5001238;28;20035;-49
2022/09/13 04:42:18;;;;;;;35.30;19.03;;;;;;;27.81;100.00;100783.84;5014176;28;19990;-50
2022/09/13 04:44:44;;;;;;;59.95;32.47;;;;;;;27.80;100.00;100787.72;5003413;28;20056;-52
2022/09/13 04:47:09;;;;;;;55.78;28.38;;;;;;;27.61;100.00;100791.47;4992552;28;20051;-47
2022/09/13 04:49:35;;;;;;;;;;;;;;;27.42;100.00;100796.31;4998069;28;20035;-51
2022/09/13 04:52:01;;;;;;;22.63;13.03;;;;;;;27.29;100.00;100796.06;5002704;28;19926;-47
2022/09/13 04:54:27;;;;;;;;;;;;;;;27.26;100.00;100793.94;5003868;28;20045;-49
2022/09/13 04:56:53;;;;;;;25.73;14.33;;;;;;;27.56;100.00;100785.28;5014538;28;19929;-52
2022/09/13 04:59:19;;;;;;;32.37;17.10;;;;;;;27.60;100.00;100787.09;5003552;28;20031;-54
2022/09/13 05:01:45;;;;;;;19.33;12.68;;;;;;;27.54;100.00;100788.38;4991794;28;20064;-51
2022/09/13 05:04:10;;;;;;;21.98;12.93;;;;;;;27.51;100.00;100785.38;4992218;28;20038;-50
2022/09/13 05:06:37;;;;;;;32.50;15.50;;;;;;;27.70;100.00;100788.78;5003714;28;20034;-50
2022/09/13 05:09:03;;;;;;;28.27;15.10;;;;;;;27.71;100.00;100792.34;5001227;28;20059;-54
2022/09/13 05:11:28;;;;;;;;;;;;;;;26.90;100.00;100789.25;4998812;28;20057;-51
2022/09/13 05:13:59;;;;;;;25.83;13.53;;;;;;;27.07;100.00;100790.53;5000904;28;19969;-50
2022/09/13 05:16:30;;;;;;;21.87;13.40;;;;;;;27.39;100.00;100791.44;4993821;28;20035;-47
2022/09/13 05:18:56;;;;;;;23.37;13.37;;;;;;;27.62;100.00;100795.84;5013489;28;20034;-47
2022/09/13 05:21:23;;;;;;;;;;;;;;;27.73;100.00;100799.16;5013070;28;20071;-52
2022/09/13 05:23:51;;;;;;;21.53;12.77;;;;;;;28.13;100.00;100801.13;5002296;28;19914;-52
2022/09/13 05:26:17;;;;;;;21.47;13.00;;;;;;;28.43;100.00;100803.41;5004146;28;20030;-48
2022/09/13 05:28:43;;;;;;;21.83;12.57;;;;;;;28.42;100.00;100802.59;4998706;28;20087;-53
2022/09/13 05:31:13;;;;;;;;;;;;;;;28.21;100.00;100804.28;5015063;28;20027;-53
2022/09/13 05:33:39;;;;;;;23.87;12.50;;;;;;;27.77;100.00;100802.09;4992213;28;19959;-47
2022/09/13 05:36:05;;;;;;;22.45;13.70;;;;;;;27.90;100.00;100795.69;4990991;28;20038;-48
2022/09/13 05:38:31;;;;;;;;;;;;;;;28.00;100.00;100800.09;4997445;28;20038;-49
2022/09/13 05:40:59;;;;;;;25.30;13.47;;;;;;;27.91;100.00;100802.00;5000492;28;19914;-50
2022/09/13 05:43:27;;;;;;;30.43;13.70;;;;;;;27.79;100.00;100805.31;5000637;28;20039;-49
2022/09/13 05:46:10;;;;;;;19.87;13.47;;;;;;;27.85;100.00;100809.56;5013337;28;20058;-47
2022/09/13 05:48:37;;;;;;;28.83;15.23;;;;;;;27.89;100.00;100807.81;4990239;28;20058;-52
2022/09/13 05:51:14;;;;;;;37.27;15.50;;;;;;;27.37;100.00;100812.91;4999550;28;20056;-48
2022/09/13 05:53:42;;;;;;;27.17;14.30;;;;;;;27.82;100.00;100812.94;4991849;28;20065;-50
2022/09/13 05:56:09;;;;;;;27.20;14.87;;;;;;;27.65;100.00;100808.16;4990106;28;20046;-54
2022/09/13 05:58:41;;;;;;;28.00;14.57;;;;;;;27.90;100.00;100814.91;5005855;28;20037;-52
2022/09/13 06:01:07;;;;;;;24.63;14.30;;;;;;;28.09;100.00;100822.13;5001320;28;20042;-48
2022/09/13 06:03:33;;;;;;;29.70;13.57;;;;;;;28.12;100.00;100821.50;5001742;28;20026;-52
2022/09/13 06:05:58;;;;;;;26.17;15.00;;;;;;;28.27;100.00;100825.00;5014448;28;20037;-52
2022/09/13 06:08:25;;;;;;;27.40;15.30;;;;;;;28.77;100.00;100821.94;4991922;28;20033;-54
2022/09/13 06:10:59;;;;;;;26.57;16.30;;;;;;;28.37;100.00;100819.22;5000335;28;20043;-50
2022/09/13 06:13:27;;;;;;;26.23;13.97;;;;;;;28.40;100.00;100813.13;4992289;28;20055;-55
2022/09/13 06:15:55;;;;;;;28.53;16.00;;;;;;;28.11;100.00;100811.63;5003546;28;20095;-47
2022/09/13 06:18:21;;;;;;;23.90;14.27;;;;;;;28.31;100.00;100817.75;5014419;28;20034;-52
2022/09/13 06:20:47;;;;;;;;;;;;;;;27.67;100.00;100816.06;5013075;28;20027;-47
2022/09/13 06:23:14;;;;;;;35.30;15.37;;;;;;;27.88;100.00;100822.66;5000732;28;19937;-49
2022/09/13 06:25:40;;;;;;;25.57;14.73;;;;;;;28.05;100.00;100826.66;4993550;28;20041;-49
2022/09/13 06:28:07;;;;;;;29.80;14.70;;;;;;;28.17;100.00;100826.91;4996358;28;20062;-48
2022/09/13 06:30:32;;;;;;;;;;;;;;;27.84;100.00;100826.38;5002962;28;20052;-51
2022/09/13 06:32:58;;;;;;;25.87;14.47;;;;;;;28.27;100.00;100823.09;5006774;28;19914;-50
2022/09/13 06:35:24;;;;;;;;;;;;;;;27.63;100.00;100821.38;5007292;28;20042;-50
2022/09/13 06:37:50;;;;;;;34.63;16.57;;;;;;;27.64;100.00;100820.25;4991299;28;19982;-48
2022/09/13 06:40:15;;;;;;;29.08;16.08;;;;;;;28.16;100.00;100817.06;5001590;28;20039;-50
2022/09/13 06:42:42;;;;;;;;;;;;;;;28.17;100.00;100815.94;5004860;28;20040;-50
2022/09/13 06:45:08;;;;;;;32.33;15.60;;;;;;;28.43;100.00;100815.22;4998660;28;19922;-51
2022/09/13 06:47:34;;;;;;;29.50;18.17;;;;;;;28.61;100.00;100818.84;5009187;28;20077;-50
2022/09/13 06:50:00;;;;;;;;;;;;;;;28.65;100.00;100820.94;4995010;28;20043;-50
2022/09/13 06:52:26;;;;;;;32.27;17.50;;;;;;;28.79;100.00;100818.06;5004431;28;19919;-49
2022/09/13 06:54:52;;;;;;;;;;;;;;;28.68;100.00;100823.88;5005133;28;20055;-53
2022/09/13 06:57:17;;;;;;;31.00;16.57;;;;;;;28.73;100.00;100818.22;5002235;28;19914;-51
2022/09/13 06:59:43;;;;;;;37.60;19.30;;;;;;;28.53;100.00;100825.13;5003927;28;20045;-50
2022/09/13 07:02:09;;;;;;;32.92;17.45;;;;;;;28.87;100.00;100820.88;4999286;28;20046;-52
2022/09/13 07:04:34;;;;;;;30.02;16.20;;;;;;;28.84;100.00;100820.72;4991620;28;20043;-49
2022/09/13 07:06:59;;;;;;;32.25;19.13;;;;;;;29.62;100.00;100822.72;4994998;28;20061;-53
2022/09/13 07:09:25;;;;;;;32.40;17.67;;;;;;;29.16;100.00;100826.91;4994112;28;20031;-52
2022/09/13 07:11:53;;;;;;;39.50;21.48;;;;;;;29.18;100.00;100824.63;4995217;28;20109;-51
2022/09/13 07:14:21;;;;;;;26.03;14.67;;;;;;;29.26;100.00;100831.28;4996566;28;20035;-52
2022/09/13 07:16:47;;;;;;;31.37;18.97;;;;;;;29.74;100.00;100838.56;5002506;28;20037;-49
2022/09/13 07:19:15;;;;;;;19.70;12.18;;;;;;;29.55;100.00;100847.19;5013124;28;20031;-51
2022/09/13 07:21:41;;;;;;;34.97;17.90;;;;;;;29.68;100.00;100839.88;4997691;28;20432;-50
2022/09/13 07:24:07;;;;;;;30.75;16.85;;;;;;;29.43;100.00;100844.28;4995922;28;20035;-50
2022/09/13 07:26:33;;;;;;;;;;;;;;;29.54;100.00;100842.81;5005169;28;20034;-51
2022/09/13 07:29:01;;;;;;;16.43;8.80;;;;;;;29.76;95.11;100838.25;5003887;28;19921;-52
2022/09/13 07:31:29;;;;;;;20.83;9.77;;;;;;;29.86;93.65;100845.34;5003221;28;20039;-52
2022/09/13 07:33:59;;;;;;;29.93;18.00;;;;;;;30.11;100.00;100834.66;5001795;28;20043;-50
2022/09/13 07:36:26;;;;;;;27.87;15.33;;;;;;;30.13;98.40;100829.59;5002798;28;20052;-53
2022/09/13 07:38:51;;;;;;;85.33;46.93;;;;;;;30.23;94.39;100833.97;5014968;28;20089;-50
2022/09/13 07:41:21;;;;;;;36.83;20.38;;;;;;;30.78;90.95;100834.19;5009057;28;20031;-52
2022/09/13 07:43:47;;;;;;;21.03;11.23;;;;;;;30.54;89.13;100838.34;4996188;28;20043;-48
2022/09/13 07:46:16;;;;;;;33.00;19.00;;;;;;;30.58;99.42;100839.31;5011506;28;20042;-51
2022/09/13 07:48:43;;;;;;;338.80;179.90;;;;;;;31.00;95.51;100842.19;5022015;28;20048;-53
2022/09/13 07:51:10;;;;;;;125.30;69.20;;;;;;;30.86;97.46;100847.97;4998675;28;20122;-52
2022/09/13 07:53:36;;;;;;;35.63;20.87;;;;;;;30.69;100.00;100851.63;5012498;28;20039;-54
2022/09/13 07:56:07;;;;;;;175.73;93.77;;;;;;;30.70;85.55;100861.53;5028154;28;20043;-54
2022/09/13 07:58:34;;;;;;;82.73;45.17;;;;;;;30.28;94.26;100848.34;5010979;28;20042;-54
2022/09/13 08:01:20;;;;;;;172.27;86.77;;;;;;;30.72;89.25;100848.19;5001719;28;20027;-54
2022/09/13 08:03:57;;;;;;;36.97;17.87;;;;;;;30.50;100.00;100849.25;5000534;28;20041;-53
2022/09/13 08:06:24;;;;;;;103.60;48.90;;;;;;;30.78;87.20;100850.75;5018797;28;20057;-53
2022/09/13 08:08:50;;;;;;;21.73;13.27;;;;;;;30.28;100.00;100847.56;5015458;28;20038;-51
2022/09/13 08:11:26;;;;;;;49.58;26.98;;;;;;;30.85;89.87;100862.06;4999355;28;20039;-53
2022/09/13 08:13:52;;;;;;;31.88;18.40;;;;;;;30.73;100.00;100852.56;4991179;28;20035;-54
2022/09/13 08:16:20;;;;;;;54.53;29.60;;;;;;;30.73;100.00;100868.31;5012406;28;20098;-51
2022/09/13 08:18:52;;;;;;;51.70;25.80;;;;;;;30.68;100.00;100861.06;5016909;28;20094;-51
2022/09/13 08:21:18;;;;;;;31.20;18.03;;;;;;;30.90;100.00;100861.88;5007938;28;20039;-53
2022/09/13 08:23:44;;;;;;;52.03;25.67;;;;;;;30.94;100.00;100860.09;5021279;28;20027;-49
2022/09/13 08:26:09;;;;;;;;;;;;;;;31.50;93.77;100866.53;4997070;28;20065;-53
2022/09/13 08:28:36;;;;;;;54.57;23.10;;;;;;;31.61;88.56;100862.19;5021467;28;19914;-52
2022/09/13 08:31:06;;;;;;;54.37;26.60;;;;;;;31.61;98.52;100863.03;5004125;28;20083;-50
2022/09/13 08:33:32;;;;;;;62.40;26.87;;;;;;;31.87;99.41;100867.53;4992093;28;20035;-51
2022/09/13 08:35:58;;;;;;;;;;;;;;;31.84;88.03;100865.44;5012765;28;20031;-52
2022/09/13 08:38:23;;;;;;;40.97;16.70;;;;;;;31.90;88.48;100866.84;4990227;28;19914;-48
2022/09/13 08:40:52;;;;;;;;;;;;;;;31.71;90.56;100860.97;5003522;28;20056;-51
2022/09/13 08:43:48;;;;;;;18.60;10.13;;;;;;;31.88;86.04;100866.38;4994302;28;19918;-48
2022/09/13 08:46:23;;;;;;;21.30;11.73;;;;;;;31.66;99.56;100867.50;4991121;28;20064;-54
2022/09/13 08:48:54;;;;;;;13.90;8.53;;;;;;;32.19;93.13;100876.13;5007608;28;20110;-54
2022/09/13 08:51:36;;;;;;;9.93;5.37;;;;;;;32.59;84.18;100874.69;5003284;28;20034;-52
2022/09/13 08:54:02;;;;;;;18.00;9.47;;;;;;;32.72;80.94;100881.03;5012652;28;20068;-52
2022/09/13 08:56:44;;;;;;;8.33;4.40;;;;;;;32.78;77.83;100881.59;5006337;28;20094;-51
2022/09/13 08:59:27;;;;;;;45.33;24.87;;;;;;;32.61;82.60;100885.41;5000074;28;20030;-52
2022/09/13 09:02:31;;;;;;;51.37;29.10;;;;;;;32.52;81.52;100888.28;4991664;28;20026;-52
2022/09/13 09:05:12;;;;;;;88.40;49.90;;;;;;;32.53;86.84;100894.66;4992178;28;20042;-52
2022/09/13 09:07:44;;;;;;;80.20;44.67;;;;;;;32.39;87.03;100898.53;4993634;28;20035;-54
2022/09/13 09:10:17;;;;;;;63.07;33.67;;;;;;;32.53;86.16;100900.19;5003714;28;20106;-52
2022/09/13 09:12:57;;;;;;;37.53;21.60;;;;;;;32.27;82.09;100896.53;4992585;28;20044;-55
2022/09/13 09:15:31;;;;;;;42.37;24.17;;;;;;;31.81;87.72;100882.69;5001588;28;20042;-50
2022/09/13 09:18:00;;;;;;;38.03;21.27;;;;;;;32.12;91.12;100886.13;5009189;28;20033;-51
2022/09/13 09:20:41;;;;;;;23.40;12.13;;;;;;;32.43;84.44;100890.38;5004062;28;20029;-51
2022/09/13 09:23:16;;;;;;;24.17;13.80;;;;;;;32.99;83.93;100892.59;5003133;28;20031;-52
2022/09/13 09:25:41;;;;;;;13.27;8.73;;;;;;;33.45;76.80;100894.38;4989748;28;20102;-53
2022/09/13 09:28:14;;;;;;;;;;;;;;;33.68;76.60;100896.56;4994634;28;20041;-52
2022/09/13 09:31:03;;;;;;;17.20;10.20;;;;;;;34.25;74.77;100894.56;5001373;28;19925;-50
2022/09/13 09:34:00;;;;;;;18.25;11.25;;;;;;;34.86;71.91;100897.25;5000114;28;20058;-52
2022/09/13 09:36:47;;;;;;;108.32;70.18;;;;;;;34.39;75.18;100896.91;5014273;28;20027;-50
2022/09/13 09:39:15;;;;;;;46.75;27.98;;;;;;;34.42;74.46;100895.38;4999981;28;20034;-51
2022/09/13 09:41:43;;;;;;;55.38;32.78;;;;;;;34.41;73.29;100900.13;4996415;28;20136;-54
2022/09/13 09:44:26;;;;;;;231.95;137.13;;;;;;;34.60;74.96;100891.09;4989966;28;20091;-52
2022/09/13 09:46:59;;;;;;;117.43;66.75;;;;;;;34.40;71.40;100887.41;5017867;28;20118;-51
2022/09/13 09:52:28;;;;;;;79.78;46.28;;;;;;;34.88;72.53;100878.25;4992467;28;20057;-51
2022/09/13 09:54:58;;;;;;;19.02;11.00;;;;;;;34.63;75.15;100884.03;5002055;28;20034;-53
2022/09/13 09:57:52;;;;;;;36.00;21.15;;;;;;;35.29;70.00;100881.56;4988231;28;20027;-50
2022/09/13 10:00:22;;;;;;;19.75;11.70;;;;;;;34.79;67.11;100874.84;4994086;28;20039;-53
2022/09/13 10:02:50;;;;;;;24.55;15.02;;;;;;;34.69;71.86;100888.13;5016251;28;20120;-54
2022/09/13 10:05:19;;;;;;;10.32;5.80;;;;;;;34.34;77.87;100888.03;4993350;28;20022;-54
2022/09/13 10:07:56;;;;;;;6.25;4.35;;;;;;;33.37;83.45;100885.00;5016350;28;20029;-52
2022/09/13 10:10:51;;;;;;;10.30;4.18;;;;;;;34.14;79.43;100883.22;4990577;28;20027;-54
2022/09/13 10:13:20;;;;;;;12.23;6.97;;;;;;;35.07;74.70;100882.28;5003189;28;20036;-50
2022/09/13 10:15:57;;;;;;;9.73;5.28;;;;;;;34.94;71.11;100878.75;4991643;28;20102;-53
2022/09/13 10:18:24;;;;;;;8.63;4.40;;;;;;;34.42;77.02;100879.53;5003813;28;20050;-54
2022/09/13 10:21:01;;;;;;;7.07;3.28;;;;;;;34.52;69.30;100882.94;5000143;28;20031;-51
2022/09/13 10:23:27;;;;;;;8.52;3.47;;;;;;;34.71;70.19;100880.25;4992612;28;20041;-54
2022/09/13 10:26:01;;;;;;;9.45;4.10;;;;;;;35.12;71.19;100870.88;4991581;28;20030;-53
2022/09/13 10:28:30;;;;;;;10.75;3.42;;;;;;;36.16;65.04;100869.34;5011821;28;20095;-53
2022/09/13 10:31:09;;;;;;;7.32;2.72;;;;;;;35.87;67.14;100867.97;4995176;28;20043;-47
2022/09/13 10:33:43;;;;;;;6.43;3.10;;;;;;;35.48;64.81;100868.03;4990823;28;20073;-54
2022/09/13 10:36:19;;;;;;;7.28;2.53;;;;;;;35.07;68.25;100862.81;5001386;28;20035;-53
2022/09/13 10:38:58;;;;;;;4.10;3.03;;;;;;;34.67;66.69;100871.03;4991540;28;20042;-53
2022/09/13 10:41:27;;;;;;;4.78;2.78;;;;;;;34.58;66.11;100867.63;5001632;28;20049;-51
2022/09/13 10:43:59;;;;;;;6.10;2.38;;;;;;;34.77;69.31;100857.75;4989582;28;20050;-52
2022/09/13 10:46:30;;;;;;;6.55;2.50;;;;;;;35.68;63.77;100864.09;5001704;28;20038;-53
2022/09/13 10:48:56;;;;;;;7.38;2.17;;;;;;;36.02;63.57;100866.31;5001160;28;20049;-50
2022/09/13 10:51:25;;;;;;;4.35;2.40;;;;;;;36.44;62.12;100865.41;4991256;28;20069;-53
2022/09/13 10:54:07;;;;;;;5.80;2.88;;;;;;;37.82;57.38;100864.47;5011986;28;20057;-53
2022/09/13 10:56:33;;;;;;;4.70;2.28;;;;;;;39.26;54.02;100861.16;5006203;28;20031;-53
2022/09/13 10:59:22;;;;;;;6.10;2.38;;;;;;;39.12;51.78;100869.47;5006066;28;20055;-54
2022/09/13 11:02:26;;;;;;;7.68;2.47;;;;;;;38.07;53.88;100872.31;5010396;28;20060;-54
2022/09/13 11:05:05;;;;;;;11.25;2.45;;;;;;;37.17;53.36;100872.09;4998529;28;20041;-52
2022/09/13 11:07:45;;;;;;;7.00;2.15;;;;;;;36.63;54.32;100866.53;5006422;28;20085;-55
2022/09/13 11:10:28;;;;;;;5.40;2.72;;;;;;;36.14;56.67;100868.91;4997079;28;20031;-51
2022/09/13 11:13:13;;;;;;;6.05;2.28;;;;;;;36.20;58.75;100863.03;4989368;28;20053;-52
2022/09/13 11:15:47;;;;;;;6.30;2.97;;;;;;;38.31;54.37;100872.91;4991861;28;20046;-53
2022/09/13 11:18:24;;;;;;;9.38;2.53;;;;;;;39.48;50.53;100869.63;4998851;28;20035;-54
2022/09/13 11:21:11;;;;;;;7.70;2.50;;;;;;;39.82;48.15;100872.13;5016634;28;20023;-56
2022/09/13 11:23:49;;;;;;;3.33;1.80;;;;;;;40.26;47.25;100875.75;4988360;28;20034;-53
2022/09/13 11:26:35;;;;;;;2.67;1.10;;;;;;;40.49;45.22;100865.34;4997558;28;20045;-52
2022/09/13 11:29:04;;;;;;;;;;;;;;;40.99;45.23;100865.25;4987616;28;20046;-52
2022/09/13 11:31:48;;;;;;;5.43;1.50;;;;;;;41.49;44.10;100860.63;4990628;28;19977;-56
2022/09/13 11:34:35;;;;;;;4.20;1.50;;;;;;;40.77;44.49;100855.31;5001579;28;20056;-50
2022/09/13 11:37:26;;;;;;;5.10;1.65;;;;;;;41.05;44.48;100856.41;5007278;28;20060;-55
2022/09/13 11:40:20;;;;;;;3.88;1.10;;;;;;;41.12;42.31;100857.16;5008771;28;20070;-50
2022/09/13 11:43:15;;;;;;;2.85;1.00;;;;;;;40.72;43.23;100848.13;4994206;28;20057;-54